sensor_id;sensor_type;location;lat;lon;timestamp;temperature;humidity
39371;DHT22;25099;51.946;4.838;2022-09-12T00:00:29;16.30;99.90
39371;DHT22;25099;51.946;4.838;2022-09-12T00:02:57;16.30;99.90
39371;DHT22;25099;51.946;4.838;2022-09-12T00:05:23;16.30;99.90
39371;DHT22;25099;51.946;4.838;2022-09-12T00:07:49;16.20;99.90
39371;DHT22;25099;51.946;4.838;2022-09-12T00:10:15;16.20;99.90
39371;DHT22;25099;51.946;4.838;2022-09-12T00:12:41;16.20;99.90
39371;DHT22;25099;51.946;4.838;2022-09-12T00:15:10;16.20;99.90
39371;DHT22;25099;51.946;4.838;2022-09-12T00:17:37;16.10;99.90
39371;DHT22;25099;51.946;4.838;2022-09-12T00:20:04;16.10;99.90
39371;DHT22;25099;51.946;4.838;2022-09-12T00:22:31;16.10;99.90
39371;DHT22;25099;51.946;4.838;2022-09-12T00:24:57;16.10;99.90
39371;DHT22;25099;51.946;4.838;2022-09-12T00:27:22;16.10;99.90
39371;DHT22;25099;51.946;4.838;2022-09-12T00:29:48;16.10;99.90
39371;DHT22;25099;51.946;4.838;2022-09-12T00:32:14;16.10;99.90
39371;DHT22;25099;51.946;4.838;2022-09-12T00:34:39;16.00;99.90
39371;DHT22;25099;51.946;4.838;2022-09-12T00:37:05;16.00;99.90
39371;DHT22;25099;51.946;4.838;2022-09-12T00:39:31;16.00;99.90
39371;DHT22;25099;51.946;4.838;2022-09-12T00:41:56;16.00;99.90
39371;DHT22;25099;51.946;4.838;2022-09-12T00:46:59;15.90;99.90
39371;DHT22;25099;51.946;4.838;2022-09-12T00:52:00;15.90;99.90
39371;DHT22;25099;51.946;4.838;2022-09-12T00:54:31;15.90;99.90
39371;DHT22;25099;51.946;4.838;2022-09-12T00:57:00;15.80;99.90
39371;DHT22;25099;51.946;4.838;2022-09-12T00:59:31;15.80;99.90
39371;DHT22;25099;51.946;4.838;2022-09-12T01:01:58;15.80;99.90
39371;DHT22;25099;51.946;4.838;2022-09-12T01:04:25;15.80;99.90
39371;DHT22;25099;51.946;4.838;2022-09-12T01:06:56;15.80;99.90
39371;DHT22;25099;51.946;4.838;2022-09-12T01:09:23;15.70;99.90
39371;DHT22;25099;51.946;4.838;2022-09-12T01:11:51;15.70;99.90
39371;DHT22;25099;51.946;4.838;2022-09-12T01:14:18;15.60;99.90
39371;DHT22;25099;51.946;4.838;2022-09-12T01:16:47;15.60;99.90
39371;DHT22;25099;51.946;4.838;2022-09-12T01:19:44;15.60;99.90
39371;DHT22;25099;51.946;4.838;2022-09-12T01:22:41;15.60;99.90
39371;DHT22;25099;51.946;4.838;2022-09-12T01:25:31;15.60;99.90
39371;DHT22;25099;51.946;4.838;2022-09-12T01:31:17;15.50;99.90
39371;DHT22;25099;51.946;4.838;2022-09-12T01:36:53;15.50;99.90
39371;DHT22;25099;51.946;4.838;2022-09-12T01:39:47;15.40;99.90
39371;DHT22;25099;51.946;4.838;2022-09-12T01:45:41;15.40;99.90
39371;DHT22;25099;51.946;4.838;2022-09-12T01:48:15;15.40;99.90
39371;DHT22;25099;51.946;4.838;2022-09-12T01:50:51;15.50;99.90
39371;DHT22;25099;51.946;4.838;2022-09-12T01:53:26;15.40;99.90
39371;DHT22;25099;51.946;4.838;2022-09-12T01:56:02;15.40;99.90
39371;DHT22;25099;51.946;4.838;2022-09-12T01:58:49;15.40;99.90
39371;DHT22;25099;51.946;4.838;2022-09-12T02:01:27;15.70;99.90
39371;DHT22;25099;51.946;4.838;2022-09-12T02:07:22;15.40;99.90
39371;DHT22;25099;51.946;4.838;2022-09-12T02:10:17;15.40;99.90
39371;DHT22;25099;51.946;4.838;2022-09-12T02:13:34;15.30;99.90
39371;DHT22;25099;51.946;4.838;2022-09-12T02:16:23;15.30;99.90
39371;DHT22;25099;51.946;4.838;2022-09-12T02:18:53;15.30;99.90
39371;DHT22;25099;51.946;4.838;2022-09-12T02:21:22;15.30;99.90
39371;DHT22;25099;51.946;4.838;2022-09-12T02:23:54;15.20;99.90
39371;DHT22;25099;51.946;4.838;2022-09-12T02:26:34;15.30;99.90
39371;DHT22;25099;51.946;4.838;2022-09-12T02:29:00;15.30;99.90
39371;DHT22;25099;51.946;4.838;2022-09-12T02:31:45;15.30;99.90
39371;DHT22;25099;51.946;4.838;2022-09-12T02:39:32;15.20;99.90
39371;DHT22;25099;51.946;4.838;2022-09-12T02:42:00;15.20;99.90
39371;DHT22;25099;51.946;4.838;2022-09-12T02:44:28;15.20;99.90
39371;DHT22;25099;51.946;4.838;2022-09-12T02:47:03;15.20;99.90
39371;DHT22;25099;51.946;4.838;2022-09-12T02:49:29;15.10;99.90
39371;DHT22;25099;51.946;4.838;2022-09-12T02:51:55;15.20;99.90
39371;DHT22;25099;51.946;4.838;2022-09-12T02:54:22;15.20;99.90
39371;DHT22;25099;51.946;4.838;2022-09-12T02:56:48;15.20;99.90
39371;DHT22;25099;51.946;4.838;2022-09-12T02:59:17;15.10;99.90
39371;DHT22;25099;51.946;4.838;2022-09-12T03:02:46;15.10;99.90
39371;DHT22;25099;51.946;4.838;2022-09-12T03:05:12;15.10;99.90
39371;DHT22;25099;51.946;4.838;2022-09-12T03:16:50;15.10;99.90
39371;DHT22;25099;51.946;4.838;2022-09-12T03:19:23;15.10;99.90
39371;DHT22;25099;51.946;4.838;2022-09-12T03:21:57;15.10;99.90
39371;DHT22;25099;51.946;4.838;2022-09-12T03:24:32;15.00;99.90
39371;DHT22;25099;51.946;4.838;2022-09-12T03:27:20;15.10;99.90
39371;DHT22;25099;51.946;4.838;2022-09-12T03:29:47;15.10;99.90
39371;DHT22;25099;51.946;4.838;2022-09-12T03:32:14;15.10;99.90
39371;DHT22;25099;51.946;4.838;2022-09-12T03:34:40;15.10;99.90
39371;DHT22;25099;51.946;4.838;2022-09-12T03:37:05;15.10;99.90
39371;DHT22;25099;51.946;4.838;2022-09-12T03:39:31;15.10;99.90
39371;DHT22;25099;51.946;4.838;2022-09-12T03:41:57;15.20;99.90
39371;DHT22;25099;51.946;4.838;2022-09-12T03:44:23;15.20;99.90
39371;DHT22;25099;51.946;4.838;2022-09-12T03:46:49;15.20;99.90
39371;DHT22;25099;51.946;4.838;2022-09-12T03:49:15;15.20;99.90
39371;DHT22;25099;51.946;4.838;2022-09-12T03:51:42;15.60;99.90
39371;DHT22;25099;51.946;4.838;2022-09-12T03:54:08;15.20;99.90
39371;DHT22;25099;51.946;4.838;2022-09-12T03:56:33;15.20;99.90
39371;DHT22;25099;51.946;4.838;2022-09-12T03:59:04;15.10;99.90
39371;DHT22;25099;51.946;4.838;2022-09-12T04:01:31;15.20;99.90
39371;DHT22;25099;51.946;4.838;2022-09-12T04:03:57;15.20;99.90
39371;DHT22;25099;51.946;4.838;2022-09-12T04:06:22;15.20;99.90
39371;DHT22;25099;51.946;4.838;2022-09-12T04:08:49;15.20;99.90
39371;DHT22;25099;51.946;4.838;2022-09-12T04:11:16;15.20;99.90
39371;DHT22;25099;51.946;4.838;2022-09-12T04:13:44;15.20;99.90
39371;DHT22;25099;51.946;4.838;2022-09-12T04:16:10;15.20;99.90
39371;DHT22;25099;51.946;4.838;2022-09-12T04:18:37;15.20;99.90
39371;DHT22;25099;51.946;4.838;2022-09-12T04:21:07;15.20;99.90
39371;DHT22;25099;51.946;4.838;2022-09-12T04:23:33;15.20;99.90
39371;DHT22;25099;51.946;4.838;2022-09-12T04:26:00;15.10;99.90
39371;DHT22;25099;51.946;4.838;2022-09-12T04:28:26;15.20;99.90
39371;DHT22;25099;51.946;4.838;2022-09-12T04:31:05;15.20;99.90
39371;DHT22;25099;51.946;4.838;2022-09-12T04:33:35;15.20;99.90
39371;DHT22;25099;51.946;4.838;2022-09-12T04:36:14;15.20;99.90
39371;DHT22;25099;51.946;4.838;2022-09-12T04:38:44;15.20;99.90
39371;DHT22;25099;51.946;4.838;2022-09-12T04:41:33;15.20;99.90
39371;DHT22;25099;51.946;4.838;2022-09-12T04:44:01;15.10;99.90
39371;DHT22;25099;51.946;4.838;2022-09-12T04:46:32;15.10;99.90
39371;DHT22;25099;51.946;4.838;2022-09-12T04:48:58;15.10;99.90
39371;DHT22;25099;51.946;4.838;2022-09-12T04:51:30;15.30;99.90
39371;DHT22;25099;51.946;4.838;2022-09-12T04:53:58;15.10;99.90
39371;DHT22;25099;51.946;4.838;2022-09-12T04:56:24;15.10;99.90
39371;DHT22;25099;51.946;4.838;2022-09-12T04:58:50;15.00;99.90
39371;DHT22;25099;51.946;4.838;2022-09-12T05:01:20;15.00;99.90
39371;DHT22;25099;51.946;4.838;2022-09-12T05:03:47;15.00;99.90
39371;DHT22;25099;51.946;4.838;2022-09-12T05:06:15;15.00;99.90
39371;DHT22;25099;51.946;4.838;2022-09-12T05:08:41;15.00;99.90
39371;DHT22;25099;51.946;4.838;2022-09-12T05:11:11;14.90;99.90
39371;DHT22;25099;51.946;4.838;2022-09-12T05:13:38;14.90;99.90
39371;DHT22;25099;51.946;4.838;2022-09-12T05:16:05;14.90;99.90
39371;DHT22;25099;51.946;4.838;2022-09-12T05:18:32;14.90;99.90
39371;DHT22;25099;51.946;4.838;2022-09-12T05:20:58;14.90;99.90
39371;DHT22;25099;51.946;4.838;2022-09-12T05:23:25;14.90;99.90
39371;DHT22;25099;51.946;4.838;2022-09-12T05:25:53;14.90;99.90
39371;DHT22;25099;51.946;4.838;2022-09-12T05:28:20;14.80;99.90
39371;DHT22;25099;51.946;4.838;2022-09-12T05:30:46;14.90;99.90
39371;DHT22;25099;51.946;4.838;2022-09-12T05:33:18;14.80;99.90
39371;DHT22;25099;51.946;4.838;2022-09-12T05:35:50;14.80;99.90
39371;DHT22;25099;51.946;4.838;2022-09-12T05:38:16;14.80;99.90
39371;DHT22;25099;51.946;4.838;2022-09-12T05:40:41;14.80;99.90
39371;DHT22;25099;51.946;4.838;2022-09-12T05:43:07;14.70;99.90
39371;DHT22;25099;51.946;4.838;2022-09-12T05:45:33;14.80;99.90
39371;DHT22;25099;51.946;4.838;2022-09-12T05:47:59;14.80;99.90
39371;DHT22;25099;51.946;4.838;2022-09-12T05:50:24;14.80;99.90
39371;DHT22;25099;51.946;4.838;2022-09-12T05:52:50;14.80;99.90
39371;DHT22;25099;51.946;4.838;2022-09-12T05:55:15;14.80;99.90
39371;DHT22;25099;51.946;4.838;2022-09-12T05:57:45;14.80;99.90
39371;DHT22;25099;51.946;4.838;2022-09-12T06:00:12;14.80;99.90
39371;DHT22;25099;51.946;4.838;2022-09-12T06:02:39;14.80;99.90
39371;DHT22;25099;51.946;4.838;2022-09-12T06:05:04;14.80;99.90
39371;DHT22;25099;51.946;4.838;2022-09-12T06:07:30;14.80;99.90
39371;DHT22;25099;51.946;4.838;2022-09-12T06:09:57;14.80;99.90
39371;DHT22;25099;51.946;4.838;2022-09-12T06:12:24;14.90;99.90
39371;DHT22;25099;51.946;4.838;2022-09-12T06:14:51;14.80;99.90
39371;DHT22;25099;51.946;4.838;2022-09-12T06:17:17;14.90;99.90
39371;DHT22;25099;51.946;4.838;2022-09-12T06:19:43;15.00;99.90
39371;DHT22;25099;51.946;4.838;2022-09-12T06:22:10;15.00;99.90
39371;DHT22;25099;51.946;4.838;2022-09-12T06:24:35;15.10;99.90
39371;DHT22;25099;51.946;4.838;2022-09-12T06:27:01;15.10;99.90
39371;DHT22;25099;51.946;4.838;2022-09-12T06:29:27;15.20;99.90
39371;DHT22;25099;51.946;4.838;2022-09-12T06:31:53;15.20;99.90
39371;DHT22;25099;51.946;4.838;2022-09-12T06:34:19;15.30;99.90
39371;DHT22;25099;51.946;4.838;2022-09-12T06:36:46;15.40;99.90
39371;DHT22;25099;51.946;4.838;2022-09-12T06:39:18;15.50;99.90
39371;DHT22;25099;51.946;4.838;2022-09-12T06:41:45;15.60;99.90
39371;DHT22;25099;51.946;4.838;2022-09-12T06:44:20;15.60;99.90
39371;DHT22;25099;51.946;4.838;2022-09-12T06:46:46;15.70;99.90
39371;DHT22;25099;51.946;4.838;2022-09-12T06:49:14;15.80;99.90
39371;DHT22;25099;51.946;4.838;2022-09-12T06:51:41;15.80;99.90
39371;DHT22;25099;51.946;4.838;2022-09-12T06:54:16;15.90;99.90
39371;DHT22;25099;51.946;4.838;2022-09-12T06:56:43;15.90;99.90
39371;DHT22;25099;51.946;4.838;2022-09-12T06:59:09;16.00;99.90
39371;DHT22;25099;51.946;4.838;2022-09-12T07:01:34;16.10;99.90
39371;DHT22;25099;51.946;4.838;2022-09-12T07:04:01;16.10;99.90
39371;DHT22;25099;51.946;4.838;2022-09-12T07:06:30;16.20;99.90
39371;DHT22;25099;51.946;4.838;2022-09-12T07:09:00;16.30;99.90
39371;DHT22;25099;51.946;4.838;2022-09-12T07:11:29;16.30;99.90
39371;DHT22;25099;51.946;4.838;2022-09-12T07:13:57;16.40;99.90
39371;DHT22;25099;51.946;4.838;2022-09-12T07:16:23;17.30;99.90
39371;DHT22;25099;51.946;4.838;2022-09-12T07:19:01;16.50;99.90
39371;DHT22;25099;51.946;4.838;2022-09-12T07:21:28;16.60;99.90
39371;DHT22;25099;51.946;4.838;2022-09-12T07:23:54;16.60;99.90
39371;DHT22;25099;51.946;4.838;2022-09-12T07:26:25;16.60;99.90
39371;DHT22;25099;51.946;4.838;2022-09-12T07:28:52;16.70;99.90
39371;DHT22;25099;51.946;4.838;2022-09-12T07:31:20;16.70;99.90
39371;DHT22;25099;51.946;4.838;2022-09-12T07:33:46;16.80;99.90
39371;DHT22;25099;51.946;4.838;2022-09-12T07:36:22;16.80;99.90
39371;DHT22;25099;51.946;4.838;2022-09-12T07:38:54;16.80;99.90
39371;DHT22;25099;51.946;4.838;2022-09-12T07:41:24;16.80;99.90
39371;DHT22;25099;51.946;4.838;2022-09-12T07:43:55;17.00;99.90
39371;DHT22;25099;51.946;4.838;2022-09-12T07:46:22;17.00;99.90
39371;DHT22;25099;51.946;4.838;2022-09-12T07:48:53;17.10;99.90
39371;DHT22;25099;51.946;4.838;2022-09-12T07:51:19;17.20;99.90
39371;DHT22;25099;51.946;4.838;2022-09-12T07:53:45;17.30;99.90
39371;DHT22;25099;51.946;4.838;2022-09-12T07:56:12;17.40;99.90
39371;DHT22;25099;51.946;4.838;2022-09-12T07:58:40;17.40;99.90
39371;DHT22;25099;51.946;4.838;2022-09-12T08:01:16;17.50;99.90
39371;DHT22;25099;51.946;4.838;2022-09-12T08:03:44;17.60;99.90
39371;DHT22;25099;51.946;4.838;2022-09-12T08:06:10;17.70;99.90
39371;DHT22;25099;51.946;4.838;2022-09-12T08:08:37;17.80;99.90
39371;DHT22;25099;51.946;4.838;2022-09-12T08:11:11;17.90;99.90
39371;DHT22;25099;51.946;4.838;2022-09-12T08:13:39;18.00;99.90
39371;DHT22;25099;51.946;4.838;2022-09-12T08:16:09;18.10;99.90
39371;DHT22;25099;51.946;4.838;2022-09-12T08:18:36;18.10;99.90
39371;DHT22;25099;51.946;4.838;2022-09-12T08:21:04;18.10;99.90
39371;DHT22;25099;51.946;4.838;2022-09-12T08:23:31;18.10;99.90
39371;DHT22;25099;51.946;4.838;2022-09-12T08:26:01;18.10;99.90
39371;DHT22;25099;51.946;4.838;2022-09-12T08:28:30;18.20;99.90
39371;DHT22;25099;51.946;4.838;2022-09-12T08:31:05;18.20;99.90
39371;DHT22;25099;51.946;4.838;2022-09-12T08:33:31;18.20;99.90
39371;DHT22;25099;51.946;4.838;2022-09-12T08:36:10;18.30;99.90
39371;DHT22;25099;51.946;4.838;2022-09-12T08:38:37;18.30;99.90
39371;DHT22;25099;51.946;4.838;2022-09-12T08:41:11;18.40;99.90
39371;DHT22;25099;51.946;4.838;2022-09-12T08:52:26;18.70;99.90
39371;DHT22;25099;51.946;4.838;2022-09-12T08:54:54;18.80;99.90
39371;DHT22;25099;51.946;4.838;2022-09-12T08:57:21;18.90;99.90
39371;DHT22;25099;51.946;4.838;2022-09-12T08:59:47;18.90;99.90
39371;DHT22;25099;51.946;4.838;2022-09-12T09:02:31;19.00;99.90
39371;DHT22;25099;51.946;4.838;2022-09-12T09:05:18;19.10;99.90
39371;DHT22;25099;51.946;4.838;2022-09-12T09:08:12;19.20;99.90
39371;DHT22;25099;51.946;4.838;2022-09-12T09:16:36;19.40;99.90
39371;DHT22;25099;51.946;4.838;2022-09-12T09:19:12;19.50;99.90
39371;DHT22;25099;51.946;4.838;2022-09-12T09:24:25;19.70;99.90
39371;DHT22;25099;51.946;4.838;2022-09-12T09:27:05;19.70;99.90
39371;DHT22;25099;51.946;4.838;2022-09-12T09:29:40;19.80;99.90
39371;DHT22;25099;51.946;4.838;2022-09-12T09:32:35;19.80;99.90
39371;DHT22;25099;51.946;4.838;2022-09-12T09:37:59;20.10;99.90
39371;DHT22;25099;51.946;4.838;2022-09-12T09:40:36;20.10;99.90
39371;DHT22;25099;51.946;4.838;2022-09-12T09:45:36;20.20;99.90
39371;DHT22;25099;51.946;4.838;2022-09-12T09:48:27;20.20;99.90
39371;DHT22;25099;51.946;4.838;2022-09-12T09:50:57;20.30;99.90
39371;DHT22;25099;51.946;4.838;2022-09-12T09:56:10;20.50;99.90
39371;DHT22;25099;51.946;4.838;2022-09-12T09:58:38;20.60;99.90
39371;DHT22;25099;51.946;4.838;2022-09-12T10:01:11;20.60;99.90
39371;DHT22;25099;51.946;4.838;2022-09-12T10:03:38;20.70;99.90
39371;DHT22;25099;51.946;4.838;2022-09-12T10:06:30;20.80;99.90
39371;DHT22;25099;51.946;4.838;2022-09-12T10:09:06;20.80;99.90
39371;DHT22;25099;51.946;4.838;2022-09-12T10:11:33;20.80;99.90
39371;DHT22;25099;51.946;4.838;2022-09-12T10:13:59;20.80;99.90
39371;DHT22;25099;51.946;4.838;2022-09-12T10:16:49;20.90;99.90
39371;DHT22;25099;51.946;4.838;2022-09-12T10:19:22;21.00;99.90
39371;DHT22;25099;51.946;4.838;2022-09-12T10:21:53;21.10;99.90
39371;DHT22;25099;51.946;4.838;2022-09-12T10:24:26;21.10;99.90
39371;DHT22;25099;51.946;4.838;2022-09-12T10:26:55;21.20;99.90
39371;DHT22;25099;51.946;4.838;2022-09-12T10:29:26;21.30;99.90
39371;DHT22;25099;51.946;4.838;2022-09-12T10:31:56;21.40;99.90
39371;DHT22;25099;51.946;4.838;2022-09-12T10:34:37;21.50;99.90
39371;DHT22;25099;51.946;4.838;2022-09-12T10:37:04;21.60;99.90
39371;DHT22;25099;51.946;4.838;2022-09-12T10:39:30;21.60;99.90
39371;DHT22;25099;51.946;4.838;2022-09-12T10:41:57;21.70;99.90
39371;DHT22;25099;51.946;4.838;2022-09-12T10:44:27;21.80;99.90
39371;DHT22;25099;51.946;4.838;2022-09-12T10:46:55;21.90;99.90
39371;DHT22;25099;51.946;4.838;2022-09-12T10:49:24;22.10;99.90
39371;DHT22;25099;51.946;4.838;2022-09-12T10:51:52;22.20;99.90
39371;DHT22;25099;51.946;4.838;2022-09-12T10:54:21;22.30;99.90
39371;DHT22;25099;51.946;4.838;2022-09-12T11:00:01;22.40;99.90
39371;DHT22;25099;51.946;4.838;2022-09-12T11:02:50;22.40;99.90
39371;DHT22;25099;51.946;4.838;2022-09-12T11:05:50;22.40;99.90
39371;DHT22;25099;51.946;4.838;2022-09-12T11:13:22;22.60;99.90
39371;DHT22;25099;51.946;4.838;2022-09-12T11:16:28;22.60;99.90
39371;DHT22;25099;51.946;4.838;2022-09-12T11:19:25;22.70;99.90
39371;DHT22;25099;51.946;4.838;2022-09-12T11:30:17;23.00;99.90
39371;DHT22;25099;51.946;4.838;2022-09-12T11:32:56;23.10;99.90
39371;DHT22;25099;51.946;4.838;2022-09-12T11:35:50;23.10;99.90
39371;DHT22;25099;51.946;4.838;2022-09-12T11:38:51;23.10;99.90
39371;DHT22;25099;51.946;4.838;2022-09-12T11:41:31;23.10;99.90
39371;DHT22;25099;51.946;4.838;2022-09-12T11:44:22;23.10;99.90
39371;DHT22;25099;51.946;4.838;2022-09-12T11:46:49;23.20;99.90
39371;DHT22;25099;51.946;4.838;2022-09-12T11:49:32;23.20;99.90
39371;DHT22;25099;51.946;4.838;2022-09-12T11:54:56;23.40;99.90
39371;DHT22;25099;51.946;4.838;2022-09-12T11:57:49;23.40;99.90
39371;DHT22;25099;51.946;4.838;2022-09-12T12:08:07;23.70;99.90
39371;DHT22;25099;51.946;4.838;2022-09-12T12:10:47;23.80;99.90
39371;DHT22;25099;51.946;4.838;2022-09-12T12:16:04;24.00;99.90
39371;DHT22;25099;51.946;4.838;2022-09-12T12:18:32;24.00;99.90
39371;DHT22;25099;51.946;4.838;2022-09-12T12:21:52;24.10;99.60
39371;DHT22;25099;51.946;4.838;2022-09-12T12:24:12;24.20;99.70
39371;DHT22;25099;51.946;4.838;2022-09-12T12:26:42;24.20;99.90
39371;DHT22;25099;51.946;4.838;2022-09-12T12:34:43;24.40;99.90
39371;DHT22;25099;51.946;4.838;2022-09-12T12:45:00;24.70;98.80
39371;DHT22;25099;51.946;4.838;2022-09-12T12:47:31;24.80;98.60
39371;DHT22;25099;51.946;4.838;2022-09-12T12:50:19;24.90;98.60
39371;DHT22;25099;51.946;4.838;2022-09-12T12:52:57;25.00;98.30
39371;DHT22;25099;51.946;4.838;2022-09-12T12:55:36;25.10;98.30
39371;DHT22;25099;51.946;4.838;2022-09-12T12:58:04;25.10;98.20
39371;DHT22;25099;51.946;4.838;2022-09-12T13:05:43;25.10;97.90
39371;DHT22;25099;51.946;4.838;2022-09-12T13:11:08;25.20;97.80
39371;DHT22;25099;51.946;4.838;2022-09-12T13:13:46;25.30;97.60
39371;DHT22;25099;51.946;4.838;2022-09-12T13:19:29;25.50;97.10
39371;DHT22;25099;51.946;4.838;2022-09-12T13:22:04;25.60;96.80
39371;DHT22;25099;51.946;4.838;2022-09-12T13:24:30;25.60;96.70
39371;DHT22;25099;51.946;4.838;2022-09-12T13:26:56;25.70;96.80
39371;DHT22;25099;51.946;4.838;2022-09-12T13:29:26;25.80;96.30
39371;DHT22;25099;51.946;4.838;2022-09-12T13:31:58;25.90;95.90
39371;DHT22;25099;51.946;4.838;2022-09-12T13:34:29;25.90;96.00
39371;DHT22;25099;51.946;4.838;2022-09-12T13:40:11;26.00;96.10
39371;DHT22;25099;51.946;4.838;2022-09-12T13:42:41;26.20;95.70
39371;DHT22;25099;51.946;4.838;2022-09-12T13:45:13;26.30;95.90
39371;DHT22;25099;51.946;4.838;2022-09-12T13:47:50;26.30;95.20
39371;DHT22;25099;51.946;4.838;2022-09-12T13:50:22;26.40;95.10
39371;DHT22;25099;51.946;4.838;2022-09-12T13:52:55;26.50;94.50
39371;DHT22;25099;51.946;4.838;2022-09-12T13:57:59;26.60;95.10
39371;DHT22;25099;51.946;4.838;2022-09-12T14:00:25;26.80;94.90
39371;DHT22;25099;51.946;4.838;2022-09-12T14:02:52;26.90;94.50
39371;DHT22;25099;51.946;4.838;2022-09-12T14:05:38;27.00;94.40
39371;DHT22;25099;51.946;4.838;2022-09-12T14:08:08;27.00;93.80
39371;DHT22;25099;51.946;4.838;2022-09-12T14:10:37;27.00;93.80
39371;DHT22;25099;51.946;4.838;2022-09-12T14:13:10;27.10;94.10
39371;DHT22;25099;51.946;4.838;2022-09-12T14:15:37;27.30;93.70
39371;DHT22;25099;51.946;4.838;2022-09-12T14:18:05;27.40;93.00
39371;DHT22;25099;51.946;4.838;2022-09-12T14:20:35;27.50;93.20
39371;DHT22;25099;51.946;4.838;2022-09-12T14:23:17;27.60;92.50
39371;DHT22;25099;51.946;4.838;2022-09-12T14:25:46;27.60;92.80
39371;DHT22;25099;51.946;4.838;2022-09-12T14:28:13;27.60;93.10
39371;DHT22;25099;51.946;4.838;2022-09-12T14:31:00;27.50;93.40
39371;DHT22;25099;51.946;4.838;2022-09-12T14:33:26;27.50;93.10
39371;DHT22;25099;51.946;4.838;2022-09-12T14:36:08;27.50;93.10
39371;DHT22;25099;51.946;4.838;2022-09-12T14:38:39;27.50;93.20
39371;DHT22;25099;51.946;4.838;2022-09-12T14:41:08;27.50;93.00
39371;DHT22;25099;51.946;4.838;2022-09-12T14:43:39;27.40;93.30
39371;DHT22;25099;51.946;4.838;2022-09-12T14:48:52;27.40;92.70
39371;DHT22;25099;51.946;4.838;2022-09-12T14:51:21;27.40;92.20
39371;DHT22;25099;51.946;4.838;2022-09-12T14:53:49;27.40;92.60
39371;DHT22;25099;51.946;4.838;2022-09-12T14:56:15;27.40;92.40
39371;DHT22;25099;51.946;4.838;2022-09-12T14:58:41;27.50;92.70
39371;DHT22;25099;51.946;4.838;2022-09-12T15:03:33;27.60;92.80
39371;DHT22;25099;51.946;4.838;2022-09-12T15:06:01;27.70;92.80
39371;DHT22;25099;51.946;4.838;2022-09-12T15:08:30;27.70;92.80
39371;DHT22;25099;51.946;4.838;2022-09-12T15:10:57;27.70;92.40
39371;DHT22;25099;51.946;4.838;2022-09-12T15:13:24;27.80;92.30
39371;DHT22;25099;51.946;4.838;2022-09-12T15:15:58;27.80;91.90
39371;DHT22;25099;51.946;4.838;2022-09-12T15:18:26;27.80;91.90
39371;DHT22;25099;51.946;4.838;2022-09-12T15:20:59;27.90;92.40
39371;DHT22;25099;51.946;4.838;2022-09-12T15:23:33;28.00;92.10
39371;DHT22;25099;51.946;4.838;2022-09-12T15:26:00;28.30;91.50
39371;DHT22;25099;51.946;4.838;2022-09-12T15:28:26;28.40;91.10
39371;DHT22;25099;51.946;4.838;2022-09-12T15:30:54;28.50;91.30
39371;DHT22;25099;51.946;4.838;2022-09-12T15:33:22;28.50;91.10
39371;DHT22;25099;51.946;4.838;2022-09-12T15:35:49;28.60;91.40
39371;DHT22;25099;51.946;4.838;2022-09-12T15:38:14;28.70;91.30
39371;DHT22;25099;51.946;4.838;2022-09-12T15:40:40;28.80;90.90
39371;DHT22;25099;51.946;4.838;2022-09-12T15:43:06;28.70;90.70
39371;DHT22;25099;51.946;4.838;2022-09-12T15:45:33;28.70;90.60
39371;DHT22;25099;51.946;4.838;2022-09-12T15:48:00;28.50;90.60
39371;DHT22;25099;51.946;4.838;2022-09-12T15:50:27;28.40;90.70
39371;DHT22;25099;51.946;4.838;2022-09-12T15:52:54;28.30;90.80
39371;DHT22;25099;51.946;4.838;2022-09-12T15:55:27;28.20;90.40
39371;DHT22;25099;51.946;4.838;2022-09-12T15:57:55;27.80;90.80
39371;DHT22;25099;51.946;4.838;2022-09-12T16:00:21;27.70;91.20
39371;DHT22;25099;51.946;4.838;2022-09-12T16:02:50;27.80;91.20
39371;DHT22;25099;51.946;4.838;2022-09-12T16:05:22;28.10;90.70
39371;DHT22;25099;51.946;4.838;2022-09-12T16:07:50;28.20;90.80
39371;DHT22;25099;51.946;4.838;2022-09-12T16:10:21;28.00;91.20
39371;DHT22;25099;51.946;4.838;2022-09-12T16:12:47;27.60;91.60
39371;DHT22;25099;51.946;4.838;2022-09-12T16:15:16;27.20;91.90
39371;DHT22;25099;51.946;4.838;2022-09-12T16:17:42;26.70;92.50
39371;DHT22;25099;51.946;4.838;2022-09-12T16:20:09;26.50;93.10
39371;DHT22;25099;51.946;4.838;2022-09-12T16:22:35;26.20;93.60
39371;DHT22;25099;51.946;4.838;2022-09-12T16:25:00;25.90;93.80
39371;DHT22;25099;51.946;4.838;2022-09-12T16:27:26;25.70;93.80
39371;DHT22;25099;51.946;4.838;2022-09-12T16:29:51;25.60;93.90
39371;DHT22;25099;51.946;4.838;2022-09-12T16:32:17;25.50;94.00
39371;DHT22;25099;51.946;4.838;2022-09-12T16:34:42;25.30;94.10
39371;DHT22;25099;51.946;4.838;2022-09-12T16:37:08;25.30;94.40
39371;DHT22;25099;51.946;4.838;2022-09-12T16:39:34;25.20;94.50
39371;DHT22;25099;51.946;4.838;2022-09-12T16:42:00;25.10;94.70
39371;DHT22;25099;51.946;4.838;2022-09-12T16:44:25;25.00;94.90
39371;DHT22;25099;51.946;4.838;2022-09-12T16:46:51;24.90;95.20
39371;DHT22;25099;51.946;4.838;2022-09-12T16:49:17;24.80;95.30
39371;DHT22;25099;51.946;4.838;2022-09-12T16:51:42;24.80;95.50
39371;DHT22;25099;51.946;4.838;2022-09-12T16:54:15;24.70;95.70
39371;DHT22;25099;51.946;4.838;2022-09-12T16:56:41;24.60;95.90
39371;DHT22;25099;51.946;4.838;2022-09-12T16:59:07;24.50;96.20
39371;DHT22;25099;51.946;4.838;2022-09-12T17:01:37;24.40;96.40
39371;DHT22;25099;51.946;4.838;2022-09-12T17:04:02;24.20;96.50
39371;DHT22;25099;51.946;4.838;2022-09-12T17:06:29;24.10;96.60
39371;DHT22;25099;51.946;4.838;2022-09-12T17:08:58;24.00;96.90
39371;DHT22;25099;51.946;4.838;2022-09-12T17:11:31;24.00;96.60
39371;DHT22;25099;51.946;4.838;2022-09-12T17:13:59;23.80;96.90
39371;DHT22;25099;51.946;4.838;2022-09-12T17:16:26;23.70;97.10
39371;DHT22;25099;51.946;4.838;2022-09-12T17:18:52;23.60;97.50
39371;DHT22;25099;51.946;4.838;2022-09-12T17:21:19;23.60;97.80
39371;DHT22;25099;51.946;4.838;2022-09-12T17:23:46;23.50;98.10
39371;DHT22;25099;51.946;4.838;2022-09-12T17:26:12;23.40;98.00
39371;DHT22;25099;51.946;4.838;2022-09-12T17:28:38;23.40;97.90
39371;DHT22;25099;51.946;4.838;2022-09-12T17:31:06;23.30;98.00
39371;DHT22;25099;51.946;4.838;2022-09-12T17:33:32;23.30;98.10
39371;DHT22;25099;51.946;4.838;2022-09-12T17:36:03;23.10;98.20
39371;DHT22;25099;51.946;4.838;2022-09-12T17:38:33;23.10;98.30
39371;DHT22;25099;51.946;4.838;2022-09-12T17:41:15;23.00;98.50
39371;DHT22;25099;51.946;4.838;2022-09-12T17:43:45;22.90;98.80
39371;DHT22;25099;51.946;4.838;2022-09-12T17:46:11;22.90;99.00
39371;DHT22;25099;51.946;4.838;2022-09-12T17:48:37;22.80;99.30
39371;DHT22;25099;51.946;4.838;2022-09-12T17:51:11;22.70;99.50
39371;DHT22;25099;51.946;4.838;2022-09-12T17:53:38;22.60;99.60
39371;DHT22;25099;51.946;4.838;2022-09-12T17:56:04;22.50;99.80